Time;durP1;ratioP1;P1;durP2;ratioP2;P2;SDS_P1;SDS_P2;PMS_P1;PMS_P2;Temp;Humidity;BMP_temperature;BMP_pressure;BME280_temperature;BME280_humidity;BME280_pressure;Samples;Min_cycle;Max_cycle;Signal;HPM_P1;HPM_P2
2023/06/30 00:02:22;;;;;;;8.75;7.97;;;;;;;19.14;100.00;100374.50;4867997;29;20153;-82
2023/06/30 00:04:50;;;;;;;9.43;8.45;;;;;;;19.15;100.00;100381.59;4850251;29;20094;-80
2023/06/30 00:07:20;;;;;;;9.05;8.20;;;;;;;19.17;100.00;100371.66;4851694;29;20124;-80
2023/06/30 00:09:48;;;;;;;8.98;8.27;;;;;;;19.16;100.00;100372.59;4844445;29;20045;-81
2023/06/30 00:12:15;;;;;;;8.23;7.53;;;;;;;19.18;100.00;100370.69;4842704;29;20494;-81
2023/06/30 00:14:41;;;;;;;9.45;8.63;;;;;;;19.19;100.00;100374.25;4876813;29;20065;-81
2023/06/30 00:17:08;;;;;;;9.40;8.60;;;;;;;19.13;100.00;100376.31;4864122;29;20058;-80
2023/06/30 00:19:35;;;;;;;10.10;9.20;;;;;;;19.15;100.00;100375.38;4847139;29;20097;-81
2023/06/30 00:22:04;;;;;;;8.95;8.15;;;;;;;19.12;100.00;100379.97;4844859;29;20128;-79
2023/06/30 00:24:30;;;;;;;10.35;9.45;;;;;;;19.14;100.00;100377.19;4829008;29;20129;-80
2023/06/30 00:26:57;;;;;;;10.90;9.93;;;;;;;19.20;100.00;100375.97;4848606;29;20118;-81
2023/06/30 00:29:24;;;;;;;9.40;8.60;;;;;;;19.10;100.00;100376.53;4860389;29;20044;-81
2023/06/30 00:31:51;;;;;;;9.60;8.73;;;;;;;19.09;100.00;100380.16;4843711;29;20060;-80
2023/06/30 00:34:17;;;;;;;10.13;9.23;;;;;;;19.05;100.00;100369.72;4861028;29;20041;-80
2023/06/30 00:36:44;;;;;;;10.00;9.00;;;;;;;19.10;100.00;100375.66;4843786;29;20038;-80
2023/06/30 00:39:11;;;;;;;10.63;9.52;;;;;;;19.06;100.00;100377.63;4843081;29;20058;-82
2023/06/30 00:41:38;;;;;;;10.43;9.40;;;;;;;19.07;100.00;100375.81;4846328;29;20422;-82
2023/06/30 00:44:05;;;;;;;9.95;9.05;;;;;;;19.05;100.00;100372.38;4842312;29;20041;-81
2023/06/30 00:46:32;;;;;;;10.10;9.10;;;;;;;19.05;100.00;100378.59;4854674;29;20044;-81
2023/06/30 00:48:58;;;;;;;9.95;9.05;;;;;;;19.07;100.00;100373.16;4856500;29;20053;-80
2023/06/30 00:51:25;;;;;;;15.73;8.95;;;;;;;19.10;100.00;100371.16;4845742;29;20046;-80
2023/06/30 00:53:52;;;;;;;10.68;9.68;;;;;;;19.17;100.00;100370.78;4867700;29;20049;-84
2023/06/30 00:56:19;;;;;;;10.10;9.00;;;;;;;19.16;100.00;100374.41;4847986;29;20144;-80
2023/06/30 00:58:45;;;;;;;11.35;9.93;;;;;;;19.29;100.00;100370.03;4872016;29;20044;-79
2023/06/30 01:01:29;;;;;;;11.30;9.90;;;;;;;19.32;100.00;100372.53;4856247;29;20101;-80
2023/06/30 01:04:02;;;;;;;;;;;;;;;19.36;100.00;100358.84;4872716;29;20041;-82
2023/06/30 01:06:30;;;;;;;12.30;9.50;;;;;;;19.44;100.00;100361.06;4859301;29;19924;-80
2023/06/30 01:09:02;;;;;;;11.18;9.55;;;;;;;19.44;100.00;100363.75;4874712;29;20511;-79
2023/06/30 01:11:30;;;;;;;13.05;9.98;;;;;;;19.45;100.00;100357.44;4826154;29;20038;-80
2023/06/30 01:13:57;;;;;;;13.18;10.15;;;;;;;19.55;100.00;100360.38;4862754;29;20148;-78
2023/06/30 01:16:26;;;;;;;11.10;9.75;;;;;;;19.48;100.00;100359.03;4858571;29;20052;-80
2023/06/30 01:18:55;;;;;;;11.55;10.20;;;;;;;19.52;100.00;100366.81;4847788;29;20462;-81
2023/06/30 01:21:22;;;;;;;11.95;9.70;;;;;;;19.51;100.00;100365.09;4846393;29;20268;-80
2023/06/30 01:24:04;;;;;;;13.57;10.80;;;;;;;19.52;100.00;100364.13;4834295;29;20112;-80
2023/06/30 01:26:34;;;;;;;12.50;10.18;;;;;;;19.59;100.00;100362.84;4859933;29;20105;-81
2023/06/30 01:29:03;;;;;;;14.95;10.93;;;;;;;19.56;100.00;100360.31;4862774;29;20905;-80
2023/06/30 01:31:33;;;;;;;12.50;10.20;;;;;;;19.70;100.00;100375.56;4876985;29;20504;-82
2023/06/30 01:34:00;;;;;;;15.70;10.27;;;;;;;19.87;100.00;100372.66;4871213;29;20060;-79
2023/06/30 01:36:27;;;;;;;15.10;10.68;;;;;;;19.75;100.00;100376.09;4851653;29;20545;-80
2023/06/30 01:38:54;;;;;;;15.45;10.95;;;;;;;19.68;100.00;100380.16;4844209;29;20045;-81
2023/06/30 01:41:20;;;;;;;16.85;11.25;;;;;;;19.63;100.00;100377.75;4869846;29;20041;-82
2023/06/30 01:43:49;;;;;;;13.98;10.82;;;;;;;19.44;100.00;100377.16;4879669;29;20076;-83
2023/06/30 01:46:16;;;;;;;17.25;11.88;;;;;;;19.31;100.00;100371.66;4826721;29;20042;-80
2023/06/30 01:48:43;;;;;;;17.42;11.90;;;;;;;19.22;100.00;100379.41;4825484;29;20106;-80
2023/06/30 01:51:13;;;;;;;16.30;11.68;;;;;;;19.12;100.00;100366.56;4847816;29;20143;-81
2023/06/30 01:53:40;;;;;;;15.57;12.00;;;;;;;19.03;100.00;100364.44;4851076;29;20044;-83
2023/06/30 01:56:07;;;;;;;15.50;10.93;;;;;;;18.89;100.00;100372.44;4867132;29;20072;-82
2023/06/30 01:58:33;;;;;;;16.23;12.18;;;;;;;18.77;100.00;100370.50;4841220;29;20399;-83
2023/06/30 02:01:00;;;;;;;15.70;11.63;;;;;;;18.71;100.00;100373.53;4825424;29;21509;-83
2023/06/30 02:03:27;;;;;;;15.65;12.20;;;;;;;18.69;100.00;100370.09;4855668;29;20045;-80
2023/06/30 02:05:54;;;;;;;15.15;11.30;;;;;;;18.64;100.00;100377.47;4872925;29;20062;-81
2023/06/30 02:08:21;;;;;;;17.45;11.88;;;;;;;18.54;100.00;100372.66;4840493;29;20046;-83
2023/06/30 02:10:48;;;;;;;17.17;11.35;;;;;;;18.51;100.00;100367.50;4826427;29;20132;-82
2023/06/30 02:13:14;;;;;;;14.70;10.82;;;;;;;18.52;100.00;100368.38;4837646;29;20041;-81
2023/06/30 02:15:41;;;;;;;16.33;12.57;;;;;;;18.40;100.00;100358.34;4843573;29;20053;-80
2023/06/30 02:18:08;;;;;;;17.85;12.23;;;;;;;18.38;100.00;100357.59;4830730;29;20049;-83
2023/06/30 02:20:35;;;;;;;16.17;11.68;;;;;;;18.35;100.00;100355.97;4854968;29;20041;-83
2023/06/30 02:23:02;;;;;;;17.60;12.23;;;;;;;18.30;100.00;100355.34;4846483;29;20049;-82
2023/06/30 02:25:28;;;;;;;14.77;11.77;;;;;;;18.26;100.00;100349.31;4855777;29;20561;-81
2023/06/30 02:27:55;;;;;;;16.52;12.30;;;;;;;18.34;100.00;100345.34;4842024;29;20128;-82
2023/06/30 02:30:22;;;;;;;18.38;12.45;;;;;;;18.33;100.00;100348.94;4858336;29;20128;-82
2023/06/30 02:32:48;;;;;;;16.92;11.70;;;;;;;18.25;100.00;100346.75;4869006;29;20052;-81
2023/06/30 02:35:15;;;;;;;16.77;12.20;;;;;;;18.27;100.00;100355.53;4855303;29;20056;-83
2023/06/30 02:37:42;;;;;;;19.33;13.15;;;;;;;18.18;100.00;100338.22;4872679;29;20041;-82
2023/06/30 02:40:09;;;;;;;17.15;12.13;;;;;;;18.15;100.00;100353.53;4861366;29;20090;-82
2023/06/30 02:42:36;;;;;;;17.30;11.75;;;;;;;18.14;100.00;100349.16;4857426;29;20048;-81
2023/06/30 02:45:03;;;;;;;17.33;12.50;;;;;;;18.14;100.00;100349.16;4875165;29;20149;-80
2023/06/30 02:47:30;;;;;;;16.25;11.15;;;;;;;18.12;100.00;100348.38;4830060;29;20460;-82
2023/06/30 02:49:57;;;;;;;14.65;11.73;;;;;;;18.10;100.00;100350.28;4832390;29;20047;-82
2023/06/30 02:52:24;;;;;;;17.55;13.30;;;;;;;18.22;100.00;100349.56;4824586;29;20049;-81
2023/06/30 02:54:51;;;;;;;18.92;13.55;;;;;;;18.17;100.00;100336.50;4859861;29;20167;-83
2023/06/30 02:57:22;;;;;;;15.38;11.60;;;;;;;18.10;100.00;100337.78;4871338;29;20399;-82
2023/06/30 02:59:49;;;;;;;16.50;12.07;;;;;;;18.04;100.00;100322.06;4851723;29;20045;-85
2023/06/30 03:02:16;;;;;;;18.02;13.63;;;;;;;17.97;100.00;100326.91;4868285;29;20045;-83
2023/06/30 03:04:43;;;;;;;16.10;12.40;;;;;;;17.98;100.00;100328.63;4839912;29;20144;-84
2023/06/30 03:07:10;;;;;;;19.35;12.38;;;;;;;18.00;100.00;100324.06;4869456;29;20126;-83
2023/06/30 03:09:36;;;;;;;17.98;12.93;;;;;;;17.94;100.00;100324.41;4861319;29;20090;-82
2023/06/30 03:12:03;;;;;;;16.75;12.73;;;;;;;17.93;100.00;100322.69;4872908;29;20052;-82
2023/06/30 03:14:30;;;;;;;17.60;12.50;;;;;;;17.92;100.00;100329.00;4850071;29;20056;-85
2023/06/30 03:16:57;;;;;;;16.42;12.48;;;;;;;17.94;100.00;100324.41;4845159;29;20060;-83
2023/06/30 03:19:24;;;;;;;17.33;12.05;;;;;;;17.95;100.00;100319.94;4842866;29;20041;-83
2023/06/30 03:21:50;;;;;;;17.70;13.38;;;;;;;18.00;100.00;100324.06;4865755;29;20120;-86
2023/06/30 03:24:17;;;;;;;16.98;12.80;;;;;;;17.95;100.00;100328.81;4853960;29;20073;-84
2023/06/30 03:26:44;;;;;;;21.27;13.27;;;;;;;17.94;100.00;100326.22;4875088;29;20150;-82
2023/06/30 03:29:10;;;;;;;18.15;13.10;;;;;;;17.92;100.00;100330.81;4873274;29;20518;-83
2023/06/30 03:31:37;;;;;;;17.83;12.93;;;;;;;17.89;100.00;100329.16;4843476;29;20041;-84
2023/06/30 03:34:04;;;;;;;19.00;12.57;;;;;;;17.91;100.00;100329.94;4844630;29;20052;-82
2023/06/30 03:36:31;;;;;;;17.58;12.82;;;;;;;17.88;100.00;100338.09;4874410;29;20042;-81
2023/06/30 03:38:57;;;;;;;18.20;14.27;;;;;;;17.92;100.00;100336.16;4865473;29;20425;-83
2023/06/30 03:41:24;;;;;;;19.13;13.88;;;;;;;17.94;100.00;100326.22;4854584;29;20076;-84
2023/06/30 03:43:51;;;;;;;17.33;12.70;;;;;;;17.95;100.00;100326.13;4850135;29;20041;-84
2023/06/30 03:46:17;;;;;;;15.95;11.77;;;;;;;17.96;100.00;100322.50;4847999;29;20083;-85
2023/06/30 03:48:44;;;;;;;18.38;13.48;;;;;;;17.98;100.00;100315.25;4853989;29;20133;-83
2023/06/30 03:51:11;;;;;;;16.60;12.65;;;;;;;18.00;100.00;100309.84;4848931;29;20050;-85
2023/06/30 03:53:38;;;;;;;19.10;13.95;;;;;;;18.05;100.00;100310.44;4864861;29;20056;-85
2023/06/30 03:56:04;;;;;;;18.15;13.32;;;;;;;18.03;100.00;100315.00;4851712;29;20065;-83
2023/06/30 03:58:31;;;;;;;18.33;13.85;;;;;;;18.05;100.00;100322.94;4873264;29;20113;-84
2023/06/30 04:00:58;;;;;;;16.90;12.73;;;;;;;18.07;100.00;100321.91;4862855;29;20049;-84
2023/06/30 04:03:25;;;;;;;17.73;12.90;;;;;;;18.09;100.00;100321.84;4849949;29;20046;-83
2023/06/30 04:05:53;;;;;;;18.70;12.88;;;;;;;18.12;100.00;100329.66;4851218;29;20078;-85
2023/06/30 04:08:21;;;;;;;16.80;13.38;;;;;;;18.14;100.00;100328.63;4853072;29;20066;-86
2023/06/30 04:10:48;;;;;;;17.98;13.98;;;;;;;18.08;100.00;100330.81;4851803;29;20049;-85
2023/06/30 04:13:14;;;;;;;16.48;12.90;;;;;;;18.04;100.00;100323.88;4873476;29;20136;-84
2023/06/30 04:15:41;;;;;;;18.52;13.80;;;;;;;18.05;100.00;100323.78;4877190;29;20051;-84
2023/06/30 04:18:09;;;;;;;19.55;14.43;;;;;;;18.14;100.00;100314.38;4851239;29;20076;-84
2023/06/30 04:20:35;;;;;;;16.63;12.93;;;;;;;18.13;100.00;100316.22;4848084;29;20155;-84
2023/06/30 04:23:02;;;;;;;16.63;11.85;;;;;;;18.15;100.00;100313.44;4842639;29;20052;-86
2023/06/30 04:25:29;;;;;;;17.85;13.68;;;;;;;18.16;100.00;100320.50;4859614;29;20049;-84
2023/06/30 04:27:56;;;;;;;18.15;13.23;;;;;;;18.19;100.00;100304.31;4872738;29;20660;-85
2023/06/30 04:30:23;;;;;;;15.02;11.80;;;;;;;18.23;100.00;100303.16;4866860;29;20109;-84
2023/06/30 04:32:49;;;;;;;17.08;12.60;;;;;;;18.33;100.00;100304.38;4866530;29;20176;-85
2023/06/30 04:35:17;;;;;;;16.55;12.48;;;;;;;18.35;100.00;100301.63;4861548;29;20074;-86
2023/06/30 04:37:44;;;;;;;15.75;12.35;;;;;;;18.38;100.00;100306.78;4869789;29;20053;-85
2023/06/30 04:40:11;;;;;;;14.30;11.75;;;;;;;18.45;100.00;100309.00;4858047;29;20045;-85
2023/06/30 04:42:37;;;;;;;16.05;12.13;;;;;;;18.55;100.00;100303.97;4834102;29;20045;-84
2023/06/30 04:45:05;;;;;;;17.20;13.45;;;;;;;18.65;100.00;100314.97;4867008;29;20045;-84
2023/06/30 04:47:32;;;;;;;17.73;12.93;;;;;;;18.74;100.00;100317.13;4859214;29;20051;-84
2023/06/30 04:49:59;;;;;;;15.38;12.52;;;;;;;18.88;100.00;100310.97;4854209;29;20124;-85
2023/06/30 04:52:26;;;;;;;17.40;13.82;;;;;;;18.90;100.00;100296.53;4866451;29;20409;-84
2023/06/30 04:54:54;;;;;;;17.63;13.40;;;;;;;18.95;100.00;100291.75;4855487;29;20041;-85
2023/06/30 04:57:22;;;;;;;18.02;12.77;;;;;;;19.00;100.00;100289.69;4865922;29;20042;-84
2023/06/30 04:59:52;;;;;;;15.48;12.43;;;;;;;19.07;100.00;100295.50;4850329;29;20081;-86
2023/06/30 05:02:19;;;;;;;16.05;12.30;;;;;;;19.22;100.00;100285.66;4844345;29;20050;-85
2023/06/30 05:04:46;;;;;;;18.42;13.15;;;;;;;19.20;100.00;100279.56;4863243;29;20038;-83
2023/06/30 05:07:12;;;;;;;16.65;11.88;;;;;;;19.25;100.00;100280.09;4872476;29;20037;-83
2023/06/30 05:09:39;;;;;;;17.00;12.77;;;;;;;19.36;100.00;100283.00;4846151;29;20098;-85
2023/06/30 05:12:06;;;;;;;18.17;13.32;;;;;;;19.47;100.00;100293.03;4861565;29;20045;-84
2023/06/30 05:14:33;;;;;;;17.40;12.02;;;;;;;19.53;100.00;100287.28;4847295;29;20509;-83
2023/06/30 05:17:00;;;;;;;17.77;13.45;;;;;;;19.58;100.00;100290.56;4841042;29;20037;-82
2023/06/30 05:19:27;;;;;;;16.83;12.52;;;;;;;19.75;100.00;100284.97;4833401;29;20325;-84
2023/06/30 05:21:54;;;;;;;16.45;12.70;;;;;;;19.93;100.00;100285.63;4860515;29;20041;-83
2023/06/30 05:24:20;;;;;;;18.08;13.07;;;;;;;19.93;100.00;100281.13;4846895;29;20110;-83
2023/06/30 05:26:48;;;;;;;15.63;11.68;;;;;;;19.94;100.00;100276.63;4846300;29;20080;-83
2023/06/30 05:29:14;;;;;;;16.88;12.95;;;;;;;19.81;100.00;100271.19;4859939;29;20054;-83
2023/06/30 05:31:41;;;;;;;18.20;13.60;;;;;;;19.92;100.00;100279.38;4847945;29;20072;-84
2023/06/30 05:34:09;;;;;;;19.02;13.70;;;;;;;20.15;100.00;100277.00;4861144;29;20074;-83
2023/06/30 05:36:38;;;;;;;18.08;12.30;;;;;;;20.16;100.00;100286.78;4847070;29;20038;-82
2023/06/30 05:39:05;;;;;;;16.85;12.73;;;;;;;20.37;100.00;100290.72;4869456;29;20056;-81
2023/06/30 05:41:31;;;;;;;15.50;12.60;;;;;;;20.80;100.00;100299.44;4867266;29;20505;-84
2023/06/30 05:43:58;;;;;;;16.30;12.32;;;;;;;21.40;100.00;100297.13;4859190;29;20125;-82
2023/06/30 05:46:25;;;;;;;15.77;11.95;;;;;;;22.08;100.00;100285.91;4870065;29;20049;-83
2023/06/30 05:48:52;;;;;;;16.40;11.00;;;;;;;22.69;100.00;100294.72;4845796;29;20075;-82
2023/06/30 05:51:19;;;;;;;13.05;10.30;;;;;;;23.19;100.00;100301.59;4847499;29;20041;-83
2023/06/30 05:53:46;;;;;;;12.90;9.90;;;;;;;23.62;100.00;100287.41;4848448;29;20041;-82
2023/06/30 05:56:13;;;;;;;14.57;10.93;;;;;;;23.53;100.00;100285.44;4832574;29;20142;-82
2023/06/30 05:58:40;;;;;;;14.15;10.93;;;;;;;23.93;98.78;100288.47;4846794;29;20163;-82
2023/06/30 06:01:07;;;;;;;14.35;10.65;;;;;;;24.39;91.92;100296.38;4860949;29;20464;-82
2023/06/30 06:03:34;;;;;;;12.55;10.38;;;;;;;24.33;94.22;100310.38;4851512;29;20103;-82
2023/06/30 06:06:01;;;;;;;12.68;10.05;;;;;;;24.06;91.06;100305.41;4843769;29;20094;-82
2023/06/30 06:08:27;;;;;;;13.52;10.13;;;;;;;23.79;90.81;100297.69;4885451;29;20524;-81
2023/06/30 06:10:54;;;;;;;13.30;10.52;;;;;;;23.62;92.16;100306.28;4865462;29;20501;-83
2023/06/30 06:13:33;;;;;;;13.18;9.82;;;;;;;23.09;91.77;100295.22;4867226;29;20052;-83
2023/06/30 06:16:01;;;;;;;13.30;9.65;;;;;;;22.98;98.71;100287.97;4850583;29;20060;-83
2023/06/30 06:18:28;;;;;;;13.43;10.25;;;;;;;22.82;100.00;100286.56;4869907;29;20049;-81
2023/06/30 06:20:55;;;;;;;13.48;9.90;;;;;;;22.77;100.00;100295.84;4859516;29;20052;-82
2023/06/30 06:23:22;;;;;;;12.98;10.43;;;;;;;22.80;100.00;100288.53;4865696;29;20113;-82
2023/06/30 06:25:49;;;;;;;14.73;10.75;;;;;;;22.54;98.48;100290.53;4868231;29;20045;-81
2023/06/30 06:28:17;;;;;;;14.30;10.15;;;;;;;22.90;99.75;100298.50;4856845;29;20065;-83
2023/06/30 06:30:44;;;;;;;13.98;10.70;;;;;;;22.96;95.25;100305.25;4840954;29;20132;-82
2023/06/30 06:33:11;;;;;;;12.93;9.35;;;;;;;22.84;94.42;100301.63;4853942;29;20049;-82
2023/06/30 06:35:38;;;;;;;14.45;10.43;;;;;;;22.72;99.44;100303.44;4848950;29;20045;-83
2023/06/30 06:38:04;;;;;;;15.40;11.18;;;;;;;22.63;100.00;100311.38;4860799;29;20390;-83
2023/06/30 06:40:32;;;;;;;15.68;10.15;;;;;;;22.48;100.00;100316.94;4841861;29;20080;-83
2023/06/30 06:42:59;;;;;;;15.75;11.30;;;;;;;22.24;99.54;100324.16;4838692;29;20050;-82
2023/06/30 06:45:26;;;;;;;16.20;10.95;;;;;;;21.99;100.00;100316.13;4869863;29;20501;-81
2023/06/30 06:48:24;;;;;;;13.50;10.07;;;;;;;21.92;100.00;100318.41;4849423;29;20568;-82
2023/06/30 06:50:56;;;;;;;13.50;10.00;;;;;;;21.87;100.00;100318.75;4866614;29;20072;-81
2023/06/30 06:53:26;;;;;;;17.05;11.25;;;;;;;21.87;100.00;100317.91;4850158;29;20452;-83
2023/06/30 06:55:54;;;;;;;15.00;9.95;;;;;;;21.79;100.00;100318.47;4831295;29;20132;-82
2023/06/30 06:58:21;;;;;;;14.88;11.07;;;;;;;21.72;100.00;100317.19;4845928;29;20694;-80
2023/06/30 07:00:49;;;;;;;14.88;12.00;;;;;;;21.66;100.00;100324.81;4862560;29;20504;-82
2023/06/30 07:03:17;;;;;;;18.23;12.70;;;;;;;21.56;100.00;100317.41;4855465;29;20088;-81
2023/06/30 07:05:44;;;;;;;15.65;12.57;;;;;;;21.41;100.00;100320.34;4845587;29;20521;-83
2023/06/30 07:08:19;;;;;;;18.17;11.93;;;;;;;21.20;100.00;100322.69;4845959;29;20267;-80
2023/06/30 07:10:46;;;;;;;16.40;12.15;;;;;;;21.19;100.00;100327.19;4874178;29;20136;-83
2023/06/30 07:13:20;;;;;;;18.10;12.05;;;;;;;20.95;100.00;100337.81;4834013;29;20128;-82
2023/06/30 07:15:48;;;;;;;18.67;11.02;;;;;;;20.96;100.00;100325.25;4854871;29;20065;-78
2023/06/30 07:18:19;;;;;;;15.95;12.60;;;;;;;20.93;100.00;100306.63;4846627;29;20065;-80
2023/06/30 07:20:47;;;;;;;18.90;12.77;;;;;;;20.89;100.00;100314.06;4855874;29;20041;-82
2023/06/30 07:23:15;;;;;;;16.70;12.68;;;;;;;20.89;100.00;100314.06;4847025;29;20037;-82
2023/06/30 07:25:42;;;;;;;16.83;13.00;;;;;;;20.78;100.00;100303.19;4840031;29;20045;-83
2023/06/30 07:28:10;;;;;;;17.90;12.50;;;;;;;20.79;100.00;100305.78;4847199;29;20089;-79
2023/06/30 07:30:39;;;;;;;19.38;13.00;;;;;;;20.76;100.00;100305.97;4840293;29;20030;-81
2023/06/30 07:33:12;;;;;;;18.60;13.32;;;;;;;20.79;100.00;100313.84;4840256;29;20453;-81
2023/06/30 07:35:39;;;;;;;20.38;13.05;;;;;;;21.00;100.00;100322.22;4853749;29;20037;-82
2023/06/30 07:38:05;;;;;;;15.52;11.38;;;;;;;21.03;100.00;100316.66;4861379;29;20121;-82
2023/06/30 07:40:32;;;;;;;19.27;13.38;;;;;;;21.19;100.00;100313.75;4850597;29;20038;-80
2023/06/30 07:43:19;;;;;;;18.73;12.65;;;;;;;21.35;100.00;100313.56;4860477;29;20093;-80
2023/06/30 07:45:45;;;;;;;18.95;12.90;;;;;;;21.39;100.00;100311.53;4843776;29;20056;-80
2023/06/30 07:48:13;;;;;;;21.40;14.15;;;;;;;21.42;100.00;100305.91;4863689;29;20521;-79
2023/06/30 07:50:40;;;;;;;19.95;14.32;;;;;;;21.35;100.00;100314.41;4851894;29;20046;-79
2023/06/30 07:53:21;;;;;;;19.65;14.02;;;;;;;21.26;100.00;100325.78;4853412;29;20392;-80
2023/06/30 07:55:48;;;;;;;20.55;14.80;;;;;;;21.13;100.00;100326.75;4879752;29;20049;-79
2023/06/30 07:58:14;;;;;;;22.10;14.38;;;;;;;21.13;100.00;100322.25;4874457;29;20041;-80
2023/06/30 08:00:41;;;;;;;21.88;14.10;;;;;;;21.21;100.00;100322.56;4859855;29;20037;-81
2023/06/30 08:03:08;;;;;;;20.58;13.32;;;;;;;21.14;100.00;100318.59;4842827;29;20060;-83
2023/06/30 08:05:35;;;;;;;18.98;13.55;;;;;;;21.08;100.00;100316.31;4861757;29;20432;-84
2023/06/30 08:08:02;;;;;;;22.42;15.52;;;;;;;21.14;100.00;100315.91;4875388;29;20048;-81
2023/06/30 08:10:29;;;;;;;20.42;14.77;;;;;;;21.14;100.00;100321.28;4863228;29;20041;-80
2023/06/30 08:12:56;;;;;;;17.70;13.02;;;;;;;21.00;100.00;100321.38;4874203;29;20694;-84
2023/06/30 08:15:23;;;;;;;19.02;13.60;;;;;;;21.03;100.00;100316.66;4832434;29;20132;-83
2023/06/30 08:17:49;;;;;;;19.23;12.93;;;;;;;21.07;100.00;100328.03;4847019;29;20043;-80
2023/06/30 08:20:22;;;;;;;17.83;12.95;;;;;;;21.01;100.00;100328.44;4852064;29;20201;-83
2023/06/30 08:22:49;;;;;;;20.08;14.15;;;;;;;21.01;100.00;100325.75;4860923;29;20038;-80
2023/06/30 08:25:16;;;;;;;17.45;14.18;;;;;;;20.99;100.00;100327.69;4862283;29;20042;-82
2023/06/30 08:27:43;;;;;;;17.75;13.27;;;;;;;20.84;100.00;100332.28;4840897;29;20045;-81
2023/06/30 08:30:10;;;;;;;19.38;13.52;;;;;;;20.68;100.00;100327.13;4858950;29;20065;-80
2023/06/30 08:32:36;;;;;;;15.82;11.98;;;;;;;20.70;100.00;100333.25;4854290;29;20046;-83
2023/06/30 08:35:03;;;;;;;16.42;11.93;;;;;;;20.76;100.00;100329.28;4845862;29;20072;-83
2023/06/30 08:37:30;;;;;;;19.33;14.00;;;;;;;20.82;100.00;100334.22;4865691;29;20041;-81
2023/06/30 08:39:56;;;;;;;18.23;13.35;;;;;;;20.96;100.00;100338.66;4860083;29;20042;-80
2023/06/30 08:42:27;;;;;;;18.40;13.05;;;;;;;20.87;100.00;100328.56;4831310;29;20076;-84
2023/06/30 08:44:54;;;;;;;18.52;14.23;;;;;;;20.92;100.00;100319.19;4860405;29;20037;-81
2023/06/30 08:47:25;;;;;;;18.95;14.02;;;;;;;20.93;100.00;100312.00;4852980;29;20069;-83
2023/06/30 08:49:52;;;;;;;21.02;14.50;;;;;;;20.78;100.00;100317.47;4857993;29;20106;-80
2023/06/30 08:52:19;;;;;;;17.52;12.95;;;;;;;20.90;100.00;100314.91;4843063;29;20492;-79
2023/06/30 08:54:46;;;;;;;17.73;12.93;;;;;;;21.09;100.00;100304.59;4834550;29;20056;-83
2023/06/30 08:57:15;;;;;;;19.38;12.45;;;;;;;21.27;100.00;100298.00;4843912;29;20038;-80
2023/06/30 08:59:42;;;;;;;17.25;12.82;;;;;;;21.43;100.00;100303.13;4857843;29;20056;-81
2023/06/30 09:02:11;;;;;;;16.63;12.57;;;;;;;21.29;100.00;100297.88;4887743;29;20509;-80
2023/06/30 09:04:39;;;;;;;16.95;12.07;;;;;;;21.23;100.00;100300.97;4853648;29;20052;-83
2023/06/30 09:07:16;;;;;;;18.55;13.15;;;;;;;21.40;100.00;100302.50;4865325;29;20476;-82
2023/06/30 09:09:45;;;;;;;18.92;13.25;;;;;;;21.46;100.00;100305.59;4870517;29;20045;-79
2023/06/30 09:12:12;;;;;;;17.08;12.65;;;;;;;21.48;100.00;100313.56;4844220;29;20049;-83
2023/06/30 09:14:40;;;;;;;20.13;14.07;;;;;;;21.52;100.00;100310.53;4843586;29;20041;-79
2023/06/30 09:17:08;;;;;;;16.17;12.13;;;;;;;21.55;100.00;100306.78;4860627;29;20067;-79
2023/06/30 09:19:35;;;;;;;16.25;12.57;;;;;;;21.53;100.00;100306.91;4851602;29;20033;-83
2023/06/30 09:22:04;;;;;;;21.38;14.93;;;;;;;21.63;100.00;100316.00;4858418;29;20517;-82
2023/06/30 09:24:51;;;;;;;18.75;14.15;;;;;;;21.54;100.00;100315.81;4865005;29;20045;-80
2023/06/30 09:27:18;;;;;;;15.43;11.77;;;;;;;21.57;100.00;100318.28;4843637;29;20056;-81
2023/06/30 09:29:54;;;;;;;17.95;13.07;;;;;;;21.78;100.00;100310.50;4862431;29;20036;-83
2023/06/30 09:32:32;;;;;;;18.48;12.60;;;;;;;21.81;100.00;100319.19;4860255;29;20041;-80
2023/06/30 09:35:08;;;;;;;18.83;14.05;;;;;;;21.67;100.00;100323.84;4866657;29;20048;-80
2023/06/30 09:37:42;;;;;;;19.10;14.20;;;;;;;21.73;100.00;100326.09;4855908;29;20042;-79
2023/06/30 09:40:14;;;;;;;17.10;13.07;;;;;;;21.75;100.00;100324.16;4857389;29;20132;-83
2023/06/30 09:42:43;;;;;;;17.88;13.95;;;;;;;21.81;100.00;100324.56;4841513;29;20053;-84
2023/06/30 09:45:13;;;;;;;17.05;13.15;;;;;;;21.90;100.00;100317.66;4862575;29;20067;-82
2023/06/30 09:47:41;;;;;;;20.13;13.93;;;;;;;21.71;94.95;100314.59;4864119;29;20071;-80
2023/06/30 09:50:08;;;;;;;18.33;13.38;;;;;;;21.57;96.37;100318.28;4850805;29;20072;-81
2023/06/30 09:52:37;;;;;;;16.77;12.88;;;;;;;21.61;100.00;100323.34;4861621;29;20060;-79
2023/06/30 09:55:10;;;;;;;19.20;12.68;;;;;;;21.69;91.93;100319.22;4859828;29;20046;-80
2023/06/30 09:57:39;;;;;;;15.93;11.38;;;;;;;21.67;98.01;100329.22;4872539;29;20037;-82
2023/06/30 10:00:07;;;;;;;19.15;12.45;;;;;;;21.64;98.58;100317.72;4857109;29;20506;-81
2023/06/30 10:02:44;;;;;;;17.83;13.15;;;;;;;21.59;99.45;100319.00;4856116;29;20037;-80
2023/06/30 10:05:11;;;;;;;18.13;11.95;;;;;;;21.58;98.90;100317.28;4855590;29;20045;-81
2023/06/30 10:07:40;;;;;;;16.13;12.25;;;;;;;21.46;100.00;100324.41;4855487;29;20041;-81
2023/06/30 10:10:09;;;;;;;18.15;12.32;;;;;;;21.35;100.00;100322.47;4849791;29;20045;-82
2023/06/30 10:12:37;;;;;;;17.20;11.77;;;;;;;21.38;100.00;100324.09;4867290;29;20041;-80
2023/06/30 10:15:05;;;;;;;18.15;11.88;;;;;;;21.37;100.00;100316.16;4865102;29;20065;-84
2023/06/30 10:17:32;;;;;;;15.63;11.60;;;;;;;21.23;100.00;100323.31;4832123;29;20132;-79
2023/06/30 10:20:00;;;;;;;15.30;12.15;;;;;;;21.28;100.00;100326.59;4857292;29;20817;-82
2023/06/30 10:22:29;;;;;;;16.10;11.82;;;;;;;21.39;100.00;100330.34;4859611;29;20579;-82
2023/06/30 10:24:56;;;;;;;14.05;10.15;;;;;;;21.30;100.00;100330.03;4856431;29;20132;-81
2023/06/30 10:27:23;;;;;;;11.85;7.88;;;;;;;21.14;100.00;100326.66;4833531;29;20049;-83
2023/06/30 10:29:50;;;;;;;11.50;8.52;;;;;;;20.86;100.00;100335.75;4840261;29;20305;-82
2023/06/30 10:32:20;;;;;;;14.70;9.70;;;;;;;20.80;100.00;100341.53;4831790;29;20048;-83
2023/06/30 10:34:48;;;;;;;14.18;10.40;;;;;;;20.18;100.00;100343.88;4863543;29;20418;-83
2023/06/30 10:37:15;;;;;;;13.52;9.23;;;;;;;20.15;100.00;100336.88;4850026;29;20043;-80
2023/06/30 10:39:43;;;;;;;17.38;10.35;;;;;;;20.20;100.00;100341.97;4834331;29;20584;-83
2023/06/30 10:42:15;;;;;;;14.68;8.70;;;;;;;20.05;100.00;100351.84;4862189;29;20447;-85
2023/06/30 10:44:44;;;;;;;12.60;9.85;;;;;;;19.85;100.00;100350.47;4856846;29;20049;-85
2023/06/30 10:47:11;;;;;;;13.70;9.10;;;;;;;19.72;100.00;100338.78;4840291;29;20056;-83
2023/06/30 10:49:39;;;;;;;15.13;9.25;;;;;;;19.58;100.00;100339.63;4858492;29;20052;-85
2023/06/30 10:52:10;;;;;;;12.55;8.88;;;;;;;19.38;100.00;100337.31;4878772;29;20413;-84
2023/06/30 10:54:39;;;;;;;13.40;9.90;;;;;;;19.30;100.00;100336.94;4867927;29;20053;-84
2023/06/30 10:57:11;;;;;;;13.75;8.15;;;;;;;19.44;100.00;100345.00;4853310;29;20050;-84
2023/06/30 10:59:46;;;;;;;13.80;9.43;;;;;;;19.32;100.00;100335.88;4844387;29;20046;-84
2023/06/30 11:04:53;;;;;;;12.40;9.65;;;;;;;19.49;100.00;100329.47;4942000;23;20046;-82
2023/06/30 11:07:25;;;;;;;13.20;10.05;;;;;;;19.48;100.00;100327.75;4967642;23;20100;-83
2023/06/30 11:09:52;;;;;;;14.60;9.25;;;;;;;19.50;100.00;100325.81;4934156;29;20044;-83
2023/06/30 11:12:20;;;;;;;12.23;8.80;;;;;;;19.47;100.00;100326.03;4916190;29;20108;-83